Flight Track Log - Related Links

Times and Time Zones

All times are in EDT time to prevent confusion due to time zone crossing. See the CSC8837 flight status page for this flight to view local times or setup timezone preferences in your user account.

Time Position Orientation Groundspeed Altitude Reporting Facility
EDT Latitude Longitude Course Direction KTS MPH feet Rate Location/Type
Wed 02:37:00 AM 25.6059 103.3807 39° Northeast  Level Estimated
Wed 02:38:00 AM 25.6778 103.4455 39° Northeast  Level Estimated
Wed 02:39:00 AM 25.7497 103.5104 39° Northeast  Level Estimated
Wed 02:40:00 AM 25.8215 103.5753 39° Northeast  Level Estimated
Wed 02:41:00 AM 25.8933 103.6404 39° Northeast  Level Estimated
Wed 02:42:00 AM 25.9651 103.7055 39° Northeast  Level Estimated
Wed 02:43:00 AM 26.0368 103.7707 39° Northeast  Level Estimated
Wed 02:44:00 AM 26.1086 103.8360 39° Northeast  Level Estimated
Wed 02:45:00 AM 26.1803 103.9013 39° Northeast  Level Estimated
Wed 02:46:00 AM 26.2519 103.9668 39° Northeast  Level Estimated
Wed 02:47:00 AM 26.3235 104.0323 39° Northeast  Level Estimated
Wed 02:48:00 AM 26.3951 104.0979 39° Northeast  Level Estimated
Wed 02:49:00 AM 26.4667 104.1636 39° Northeast  Level Estimated
Wed 02:50:00 AM 26.5382 104.2293 39° Northeast  Level Estimated
Wed 02:51:00 AM 26.6097 104.2952 39° Northeast  Level Estimated
Wed 02:52:00 AM 26.6812 104.3611 39° Northeast  Level Estimated
Wed 02:53:00 AM 26.7527 104.4271 40° Northeast  Level Estimated
Wed 02:54:00 AM 26.8241 104.4932 40° Northeast  Level Estimated
Wed 02:55:00 AM 26.8955 104.5594 40° Northeast  Level Estimated
Wed 02:56:00 AM 26.9668 104.6257 40° Northeast  Level Estimated
Wed 02:57:00 AM 27.0381 104.6920 40° Northeast  Level Estimated
Wed 02:58:00 AM 27.1094 104.7585 40° Northeast  Level Estimated
Wed 02:59:00 AM 27.1807 104.8250 40° Northeast  Level Estimated
Wed 03:00:00 AM 27.2519 104.8916 40° Northeast  Level Estimated
Wed 03:01:00 AM 27.3231 104.9583 40° Northeast  Level Estimated
Wed 03:02:00 AM 27.3943 105.0251 40° Northeast  Level Estimated
Wed 03:03:00 AM 27.4654 105.0919 40° Northeast  Level Estimated
Wed 03:04:00 AM 27.5365 105.1589 40° Northeast  Level Estimated
Wed 03:05:00 AM 27.6076 105.2259 40° Northeast  Level Estimated
Wed 03:06:00 AM 27.6786 105.2930 40° Northeast  Level Estimated
Wed 03:07:00 AM 27.7496 105.3602 40° Northeast  Level Estimated
Wed 03:08:00 AM 27.8206 105.4275 40° Northeast  Level Estimated
Wed 03:09:00 AM 27.8915 105.4949 40° Northeast  Level Estimated
Wed 03:10:00 AM 27.9624 105.5624 40° Northeast  Level Estimated
Wed 03:11:00 AM 28.0333 105.6299 40° Northeast  Level Estimated
Wed 03:12:00 AM 28.1041 105.6976 40° Northeast  Level Estimated
Wed 03:13:00 AM 28.1749 105.7653 40° Northeast  Level Estimated
Wed 03:14:00 AM 28.2457 105.8332 40° Northeast  Level Estimated
Wed 03:15:00 AM 28.3165 105.9011 40° Northeast  Level Estimated
Wed 03:16:00 AM 28.3872 105.9691 40° Northeast  Level Estimated
Wed 03:17:00 AM 28.4578 106.0372 40° Northeast  Level Estimated
Wed 03:18:00 AM 28.5285 106.1054 40° Northeast  Level Estimated
Wed 03:19:00 AM 28.5991 106.1737 40° Northeast  Level Estimated
Wed 03:20:00 AM 28.6696 106.2420 40° Northeast  Level Estimated
Wed 03:21:00 AM 28.7402 106.3105 40° Northeast  Level Estimated
Wed 03:22:00 AM 28.8107 106.3790 40° Northeast  Level Estimated
Wed 03:23:00 AM 28.8811 106.4477 40° Northeast  Level Estimated
Wed 03:24:00 AM 28.9516 106.5164 40° Northeast  Level Estimated
Wed 03:25:00 AM 29.0220 106.5853 41° Northeast  Level Estimated
Wed 03:26:00 AM 29.0923 106.6542 41° Northeast  Level Estimated
Wed 03:27:00 AM 29.1627 106.7232 41° Northeast  Level Estimated
Wed 03:28:00 AM 29.2330 106.7924 41° Northeast  Level Estimated
Wed 03:29:00 AM 29.3032 106.8616 41° Northeast  Level Estimated
Wed 03:30:00 AM 29.3734 106.9309 41° Northeast  Level Estimated
Wed 03:31:00 AM 29.4436 107.0003 41° Northeast  Level Estimated
Wed 03:32:00 AM 29.5138 107.0698 41° Northeast  Level Estimated
Wed 03:33:00 AM 29.5839 107.1394 41° Northeast  Level Estimated
Wed 03:34:00 AM 29.6539 107.2091 41° Northeast  Level Estimated
Wed 03:35:00 AM 29.7240 107.2789 41° Northeast  Level Estimated
Wed 03:36:00 AM 29.7940 107.3488 41° Northeast  Level Estimated
Wed 03:37:00 AM 29.8640 107.4187 41° Northeast  Level Estimated
Wed 03:38:00 AM 29.9339 107.4888 41° Northeast  Level Estimated
Wed 03:39:00 AM 30.0038 107.5590 41° Northeast  Level Estimated
Wed 03:40:00 AM 30.0736 107.6293 41° Northeast  Level Estimated
Wed 03:41:00 AM 30.1434 107.6997 41° Northeast  Level Estimated
Wed 03:42:00 AM 30.2132 107.7702 41° Northeast  Level Estimated
Wed 03:43:00 AM 30.2830 107.8408 41° Northeast  Level Estimated
Wed 03:44:00 AM 30.3527 107.9114 41° Northeast  Level Estimated
Wed 03:45:00 AM 30.4223 107.9822 41° Northeast  Level Estimated
Wed 03:46:00 AM 30.4920 108.0531 41° Northeast  Level Estimated
Wed 03:47:00 AM 30.5616 108.1241 41° Northeast  Level Estimated
Wed 03:48:00 AM 30.6311 108.1952 41° Northeast  Level Estimated
Wed 03:49:00 AM 30.7006 108.2664 41° Northeast  Level Estimated
Wed 03:50:00 AM 30.7701 108.3377 41° Northeast  Level Estimated
Wed 03:51:00 AM 30.8361 108.4056 41° Northeast  Level Estimated
Wed 03:52:00 AM 30.8361 108.4056 North  Level Estimated
Wed 03:53:00 AM 30.8361 108.4056 North  Level Estimated
Wed 03:54:00 AM 30.8361 108.4056 North  Level Estimated
Wed 03:55:00 AM 30.8361 108.4056 North  Level Estimated
Wed 03:56:00 AM 30.8361 108.4056 North  Level Estimated
Wed 03:57:00 AM 30.8361 108.4056 North  Level Estimated
Wed 03:58:00 AM 30.8361 108.4056 North  Level Estimated
Wed 03:59:00 AM 30.8361 108.4056 North  Level Estimated
Wed 04:00:00 AM 30.8361 108.4056 North  Level Estimated
Wed 04:01:00 AM 30.8361 108.4056 North  Level Estimated
Wed 04:02:00 AM 30.8361 108.4056 North  Level Estimated
Wed 04:03:00 AM 30.8361 108.4056 North  Level Estimated
Wed 04:04:00 AM 30.8361 108.4056 North  Level Estimated
Wed 04:05:00 AM 30.8361 108.4056 North  Level Estimated
Wed 04:06:00 AM 30.8361 108.4056 North  Level Estimated

Login

Don't have an account? Register now (free) for customized features, flight alerts, and more!